Pagina principale
METAR-TAF:

METAR-TAF

Aeroporti :

Aeroporto di Albenga

Albenga, Italia

latitudine: 44-03N, longitudine: 008-07E, altezza: 45 m

Osservazione

Il bollettino è stato emesso 7 ore e 23 minuti fa, alle 17:50 UTC
Vento 6 kt da est
Temperature 17°C
Umidità 82%
Pressione 1010 hPa
Visibilità 10 km o più
Poco nuvoloso ad un'altezza di 2000 ft
Nubi sparse ad un'altezza di 3000 ft

METAR: LIMG 151750Z 08006KT 9999 FEW020 SCT030 17/14 Q1010

Ora: 03:13 (01:13 UTC)

Previsione

Il bollettino è stato emesso 14 ore e 13 minuti fa, alle 11:00 UTC
Previsione valida dal 15 alle 12 UTC al 16 alle 12 UTC
Vento 5 kt da direzioni variabili
Visibilità 10 km o più
Nubi sparse ad un'altezza di 4500 ft
Temporaneamente
dal 15 alle 12 UTC al 15 alle 18 UTC
Vento 10 kt da est/nord-est
Evoluzione graduale
dal 16 alle 08 UTC al 16 alle 10 UTC
Vento 10 kt da est

TAF: LIMG 151100Z 1512/1612 VRB05KT 9999 SCT045 TEMPO 1512/1518 07010KT BECMG 1608/1610 09010KT

Osservazioni e previsioni meteorologiche di più di 4000 aeroporti (messaggi METAR e TAF).

Le stazioni disponibili sono rappresentate dai dischi gialli e rossi sulla carta.

Puntare il mouse per vedere il nome della stazione.

Clicca sopra per visualizzare le osservazioni e previsioni meteorologiche.

Per cambiare la mappa : fare clic sui pulsanti verdi con una croce nera per ingrandire, il pulsante verde con un trattino per diminuire, o sulla freccia verde per le mappe adiacenti.


METAR-TAF: